Dingus, Kentucky
Current Conditions -  °F | °C
As of 2:53 AM on Sunday 21 Dec 2014 (Local Time) from KJKL Reporting Station
Clear Clear  
Wind Chill: 27°   Ceiling: Unl
Heat Index: 27°   Visibility: 8mi
Dew Point: 21°   Wind: 3mph
Humidity: 78%   Direction: 30°NNE
Pressure: 30.26"   Gusts: NA
Location:  37.937°N, 83.2694°W
Report Text: KJKL 210753Z AUTO 03003KT 8SM CLR M03/M06 A3026 RMK AO2 SLP255 I1000 T10281061
Loading
Personal Weather Stations






























Interactive Weather Map New forecast layout! Learn more

10-Day Weather Forecast

Advertisements
Track Severe Weather on mobile